Time;durP1;ratioP1;P1;durP2;ratioP2;P2;SDS_P1;SDS_P2;PMS_P1;PMS_P2;Temp;Humidity;BMP_temperature;BMP_pressure;BME280_temperature;BME280_humidity;BME280_pressure;Samples;Min_cycle;Max_cycle;Signal;HPM_P1;HPM_P2
2022/02/09 00:05:30;;;;;;;3.83;2.70;;;6.30;99.90;;;;;;5069306;28;20157;-63
2022/02/09 00:08:15;;;;;;;10.95;3.67;;;6.30;99.90;;;;;;5083146;28;20077;-62
2022/02/09 00:11:03;;;;;;;7.25;3.60;;;6.30;99.90;;;;;;5075681;28;20074;-62
2022/02/09 00:13:56;;;;;;;11.45;3.83;;;6.30;99.90;;;;;;5081870;28;20098;-63
2022/02/09 00:22:49;;;;;;;6.10;3.75;;;6.30;99.90;;;;;;5063205;28;20048;-63
2022/02/09 00:29:03;;;;;;;6.22;4.20;;;6.30;99.90;;;;;;5069116;28;20565;-63
2022/02/09 01:55:28;;;;;;;5.22;2.72;;;6.20;99.90;;;;;;5042410;28;20032;-62
2022/02/09 01:58:13;;;;;;;7.18;2.95;;;6.20;99.90;;;;;;5054301;28;20035;-63
2022/02/09 02:00:56;;;;;;;5.40;2.90;;;6.20;99.90;;;;;;5054986;28;20040;-61
2022/02/09 02:03:41;;;;;;;5.40;2.97;;;6.20;99.90;;;;;;5065297;28;20043;-63
2022/02/09 02:06:25;;;;;;;3.40;2.58;;;6.30;99.90;;;;;;5055336;28;20047;-62
2022/02/09 02:09:10;;;;;;;8.75;3.35;;;6.30;99.90;;;;;;5064259;28;20581;-63
2022/02/09 02:12:00;;;;;;;6.70;3.75;;;6.30;99.90;;;;;;5055843;28;20036;-63
2022/02/09 02:14:49;;;;;;;5.68;3.60;;;6.20;99.90;;;;;;5058942;28;20039;-63
2022/02/09 02:17:45;;;;;;;3.15;2.72;;;6.20;99.90;;;;;;5061968;28;20063;-65
2022/02/09 02:20:44;;;;;;;4.03;2.90;;;6.30;99.90;;;;;;5056139;28;20820;-63
2022/02/09 02:47:30;;;;;;;4.90;3.28;;;6.30;99.90;;;;;;5060357;28;20048;-63
2022/02/09 02:59:37;;;;;;;5.88;2.35;;;6.30;99.90;;;;;;5060103;28;20055;-63
2022/02/09 03:08:53;;;;;;;3.80;2.85;;;6.30;99.90;;;;;;5058801;28;20047;-63
2022/02/09 03:14:39;;;;;;;3.05;2.47;;;6.20;99.90;;;;;;5058239;28;20063;-63
2022/02/09 03:17:32;;;;;;;3.15;2.40;;;6.20;99.90;;;;;;5064061;28;20040;-63
2022/02/09 03:20:30;;;;;;;3.15;2.33;;;6.20;99.90;;;;;;5063362;28;20047;-63
2022/02/09 03:26:26;;;;;;;3.33;2.10;;;6.20;99.90;;;;;;5056071;28;20179;-63
2022/02/09 03:42:25;;;;;;;3.67;2.40;;;6.20;99.90;;;;;;5059653;28;20043;-62
2022/02/09 03:50:55;;;;;;;6.25;3.22;;;6.30;99.90;;;;;;5049715;28;20102;-62
2022/02/09 03:57:02;;;;;;;5.35;4.18;;;6.20;99.90;;;;;;5064962;28;20383;-63
2022/02/09 03:59:46;;;;;;;12.88;6.43;;;6.20;99.90;;;;;;5069107;28;20093;-63
2022/02/09 04:02:30;;;;;;;6.75;4.47;;;6.20;99.90;;;;;;5066933;28;20071;-63
2022/02/09 04:05:15;;;;;;;6.40;4.88;;;6.20;99.90;;;;;;5063603;28;20965;-62
2022/02/09 04:08:01;;;;;;;7.05;5.20;;;6.20;99.90;;;;;;5068140;28;20039;-63
2022/02/09 04:10:54;;;;;;;7.70;5.07;;;6.20;99.90;;;;;;5062554;28;20036;-62
2022/02/09 04:22:52;;;;;;;7.53;5.60;;;6.20;99.90;;;;;;5061339;28;20601;-63
2022/02/09 04:38:02;;;;;;;6.95;3.72;;;6.20;99.90;;;;;;5068127;28;20042;-63
2022/02/09 04:41:17;;;;;;;7.40;4.10;;;6.30;99.90;;;;;;5063164;28;20036;-63
2022/02/09 04:44:19;;;;;;;8.05;4.20;;;6.20;99.90;;;;;;5065429;28;20046;-62
2022/02/09 04:50:54;;;;;;;5.32;4.00;;;6.20;99.90;;;;;;5066414;28;20232;-62
2022/02/09 04:54:16;;;;;;;7.68;3.83;;;6.30;99.90;;;;;;5066830;28;20044;-64
2022/02/09 04:56:44;;;;;;;5.65;4.10;;;6.20;99.90;;;;;;5059537;28;20686;-63
2022/02/09 04:59:50;;;;;;;6.50;3.92;;;6.20;99.90;;;;;;5063750;28;20420;-62
2022/02/09 05:17:49;;;;;;;7.35;4.35;;;6.20;99.90;;;;;;5052011;28;21479;-63
2022/02/09 05:26:48;;;;;;;5.63;3.90;;;6.10;99.90;;;;;;5057622;28;20046;-62
2022/02/09 05:29:32;;;;;;;4.63;3.28;;;6.20;99.90;;;;;;5060654;28;20036;-62
2022/02/09 05:32:16;;;;;;;5.47;3.72;;;6.10;99.90;;;;;;5060936;28;20450;-59
2022/02/09 05:35:01;;;;;;;6.30;3.88;;;6.10;99.90;;;;;;5065586;28;20043;-61
2022/02/09 05:37:45;;;;;;;5.93;3.97;;;6.20;99.90;;;;;;5061932;28;20063;-61
2022/02/09 05:40:29;;;;;;;6.38;4.22;;;6.20;99.90;;;;;;5059873;28;20040;-61
2022/02/09 05:43:15;;;;;;;7.05;4.97;;;6.10;99.90;;;;;;5058781;28;20116;-61
2022/02/09 05:52:15;;;;;;;8.25;5.35;;;6.10;99.90;;;;;;5058135;28;20059;-63
2022/02/09 05:57:48;;;;;;;8.82;6.00;;;6.20;99.90;;;;;;5061357;28;20054;-59
2022/02/09 06:00:32;;;;;;;12.85;6.43;;;6.20;99.90;;;;;;5062619;28;20704;-60
2022/02/09 06:03:16;;;;;;;7.78;5.63;;;6.20;99.90;;;;;;5066878;28;20085;-62
2022/02/09 06:06:03;;;;;;;8.90;5.72;;;6.20;99.90;;;;;;5063922;28;20090;-60
2022/02/09 06:08:47;;;;;;;10.02;5.80;;;6.20;99.90;;;;;;5066012;28;20500;-61
2022/02/09 06:11:43;;;;;;;8.30;5.78;;;6.10;99.90;;;;;;5053597;28;20126;-62
2022/02/09 06:20:17;;;;;;;8.40;5.57;;;6.10;99.90;;;;;;5063669;28;20657;-60
2022/02/09 06:23:02;;;;;;;8.88;5.60;;;6.20;99.90;;;;;;5064278;28;20054;-59
2022/02/09 06:25:46;;;;;;;8.48;6.10;;;6.10;99.90;;;;;;5060342;28;20048;-61
2022/02/09 06:28:30;;;;;;;8.55;5.43;;;6.10;99.90;;;;;;5061488;28;20086;-62
2022/02/09 06:31:14;;;;;;;7.55;4.82;;;6.10;99.90;;;;;;5058359;28;20039;-62
2022/02/09 06:33:58;;;;;;;12.10;6.25;;;6.10;99.90;;;;;;5065137;28;20039;-61
2022/02/09 06:36:48;;;;;;;9.32;5.63;;;6.10;99.90;;;;;;5061110;28;20043;-61
2022/02/09 06:39:33;;;;;;;9.18;6.10;;;6.10;99.90;;;;;;5060030;28;20794;-61
2022/02/09 06:42:22;;;;;;;8.00;5.10;;;6.10;99.90;;;;;;5060354;28;20202;-61
2022/02/09 06:45:14;;;;;;;10.05;5.30;;;6.10;99.90;;;;;;5060873;28;20035;-61
2022/02/09 06:47:58;;;;;;;9.25;5.97;;;6.10;99.90;;;;;;5062862;28;20081;-61
2022/02/09 06:50:47;;;;;;;12.45;6.32;;;6.10;99.90;;;;;;5059374;28;20059;-62
2022/02/09 06:53:50;;;;;;;9.63;5.80;;;6.00;99.90;;;;;;5063742;28;20098;-61
2022/02/09 06:57:31;;;;;;;12.15;6.65;;;6.00;99.90;;;;;;5059392;28;20039;-61
2022/02/09 06:59:42;;;;;;;10.55;6.38;;;6.10;99.90;;;;;;5059871;28;20036;-61
2022/02/09 07:02:26;;;;;;;10.30;6.68;;;6.00;99.90;;;;;;5058146;28;20698;-62
2022/02/09 07:05:12;;;;;;;8.35;5.22;;;6.10;99.90;;;;;;5063845;28;20101;-62
2022/02/09 07:07:56;;;;;;;12.25;7.03;;;6.10;99.90;;;;;;5065647;28;20047;-61
2022/02/09 07:10:41;;;;;;;9.27;6.18;;;6.10;99.90;;;;;;5076646;28;20027;-61
2022/02/09 07:13:25;;;;;;;9.57;5.95;;;6.00;99.90;;;;;;5066344;28;20818;-62
2022/02/09 07:16:09;;;;;;;9.98;6.00;;;6.10;99.90;;;;;;5061415;28;20460;-61
2022/02/09 07:18:53;;;;;;;8.88;6.05;;;6.10;99.90;;;;;;5059001;28;20487;-61
2022/02/09 07:21:40;;;;;;;8.38;6.03;;;6.10;99.90;;;;;;5056109;28;20043;-61
2022/02/09 07:24:23;;;;;;;10.45;6.05;;;6.00;99.90;;;;;;5055378;28;20622;-62
2022/02/09 07:27:27;;;;;;;11.80;7.60;;;6.10;99.90;;;;;;5064324;28;20508;-61
2022/02/09 07:30:11;;;;;;;10.68;6.75;;;6.10;99.90;;;;;;5066338;28;20047;-62
2022/02/09 07:32:59;;;;;;;11.10;6.43;;;6.10;99.90;;;;;;5067447;28;20124;-61
2022/02/09 07:35:43;;;;;;;8.60;6.45;;;6.10;99.90;;;;;;5056075;28;20396;-61
2022/02/09 07:38:27;;;;;;;10.68;6.88;;;6.10;99.90;;;;;;5065439;28;20511;-61
2022/02/09 07:41:12;;;;;;;14.50;7.57;;;6.10;99.90;;;;;;5066703;28;20091;-60
2022/02/09 07:50:14;;;;;;;12.10;6.32;;;6.10;99.90;;;;;;5064607;28;20116;-63
2022/02/09 07:53:10;;;;;;;9.55;6.95;;;6.10;99.90;;;;;;5064074;28;20036;-61
2022/02/09 07:55:54;;;;;;;10.43;6.18;;;6.10;99.90;;;;;;5067714;28;20129;-63
2022/02/09 07:58:38;;;;;;;16.48;6.72;;;6.10;99.90;;;;;;5064891;28;20118;-62
2022/02/09 08:01:23;;;;;;;13.02;6.60;;;6.10;99.90;;;;;;5061431;28;20067;-63
2022/02/09 08:04:08;;;;;;;12.38;7.28;;;6.10;99.90;;;;;;5064924;28;20677;-61
2022/02/09 08:06:52;;;;;;;10.65;7.55;;;6.10;99.90;;;;;;5060289;28;20084;-62
2022/02/09 08:09:40;;;;;;;10.38;6.82;;;6.10;99.90;;;;;;5057453;28;20035;-62
2022/02/09 08:12:36;;;;;;;11.35;7.55;;;6.20;99.90;;;;;;5062562;28;20035;-63
2022/02/09 08:23:32;;;;;;;12.98;8.27;;;6.20;99.90;;;;;;5061232;28;20063;-63
2022/02/09 08:27:40;;;;;;;11.23;7.70;;;6.30;99.90;;;;;;5064299;28;20449;-63
2022/02/09 08:33:29;;;;;;;10.13;5.72;;;6.30;99.90;;;;;;5038798;28;20511;-67
2022/02/09 08:36:14;;;;;;;8.30;5.80;;;6.30;99.90;;;;;;5063531;28;20048;-61
2022/02/09 08:38:59;;;;;;;10.70;5.72;;;6.30;99.90;;;;;;5066769;28;20204;-62
2022/02/09 08:41:43;;;;;;;12.45;5.88;;;6.30;99.90;;;;;;5058414;28;20093;-62
2022/02/09 08:44:28;;;;;;;9.35;5.45;;;6.30;99.90;;;;;;5067227;28;20106;-62
2022/02/09 08:47:12;;;;;;;13.45;6.10;;;6.20;99.90;;;;;;5065739;28;20502;-62
2022/02/09 08:49:56;;;;;;;9.07;6.43;;;6.20;99.90;;;;;;5066356;28;20407;-62
2022/02/09 08:52:41;;;;;;;8.98;6.22;;;6.20;99.90;;;;;;5062254;28;20083;-61
2022/02/09 08:55:26;;;;;;;7.93;5.47;;;6.10;99.90;;;;;;5054645;28;20613;-60
2022/02/09 08:58:11;;;;;;;9.07;6.22;;;6.20;99.90;;;;;;5063736;28;20094;-62
2022/02/09 09:01:07;;;;;;;7.43;5.22;;;6.20;99.90;;;;;;5063418;28;20661;-61
2022/02/09 09:03:55;;;;;;;9.95;6.47;;;6.20;99.90;;;;;;5065203;28;20102;-62
2022/02/09 09:06:42;;;;;;;8.48;5.82;;;6.20;99.90;;;;;;5065893;28;20039;-62
2022/02/09 09:09:40;;;;;;;9.23;5.80;;;6.20;99.90;;;;;;5068642;28;20309;-62
2022/02/09 10:34:29;;;;;;;8.30;5.75;;;6.50;99.90;;;;;;5060613;28;20050;-62
2022/02/09 10:37:13;;;;;;;8.13;5.80;;;6.60;99.90;;;;;;5064916;28;20055;-62
2022/02/09 10:40:01;;;;;;;8.30;5.50;;;6.60;99.90;;;;;;5062305;28;20047;-62
2022/02/09 10:42:49;;;;;;;10.82;6.32;;;6.60;99.90;;;;;;5067417;28;20059;-62
2022/02/09 10:45:44;;;;;;;7.85;5.43;;;6.50;99.90;;;;;;5053757;28;20177;-61
2022/02/09 10:48:35;;;;;;;9.27;4.70;;;6.60;99.90;;;;;;5061834;28;20065;-62
2022/02/09 10:54:25;;;;;;;4.70;3.65;;;6.60;99.90;;;;;;5063269;28;20040;-61
2022/02/09 10:57:11;;;;;;;5.80;3.20;;;6.60;99.90;;;;;;5063123;28;20174;-62
2022/02/09 10:59:56;;;;;;;5.15;2.88;;;6.70;99.90;;;;;;5064698;28;20032;-61
2022/02/09 11:02:41;;;;;;;6.32;3.88;;;6.70;99.90;;;;;;5060871;28;20765;-61
2022/02/09 11:05:26;;;;;;;8.82;4.13;;;6.70;99.90;;;;;;5055514;28;20047;-62
2022/02/09 11:08:11;;;;;;;6.40;3.53;;;6.60;99.90;;;;;;5063551;28;20518;-61
2022/02/09 11:10:55;;;;;;;6.22;4.43;;;6.60;99.90;;;;;;5058483;28;20039;-62
2022/02/09 11:13:42;;;;;;;11.95;5.13;;;6.60;99.90;;;;;;5059864;28;20043;-62
2022/02/09 11:16:27;;;;;;;6.78;4.38;;;6.60;99.90;;;;;;5088229;28;20074;-62
2022/02/09 11:19:15;;;;;;;8.60;4.90;;;6.60;99.90;;;;;;5065019;28;20114;-61
2022/02/09 11:22:10;;;;;;;7.22;4.75;;;6.70;99.90;;;;;;5062910;28;20094;-62
2022/02/09 11:25:16;;;;;;;6.72;4.28;;;6.70;99.90;;;;;;5062856;28;20040;-61
2022/02/09 11:28:17;;;;;;;14.77;5.05;;;6.80;99.90;;;;;;5064720;28;20043;-61
2022/02/09 11:31:13;;;;;;;6.07;4.07;;;6.80;99.90;;;;;;5058571;28;20404;-62
2022/02/09 11:34:01;;;;;;;7.20;4.78;;;6.80;99.90;;;;;;5064927;28;20121;-63
2022/02/09 11:36:57;;;;;;;7.82;4.80;;;6.80;99.90;;;;;;5062079;28;20039;-62
2022/02/09 11:39:44;;;;;;;8.00;4.20;;;6.80;99.90;;;;;;5086954;28;20071;-62
2022/02/09 11:42:45;;;;;;;6.85;4.63;;;6.80;99.90;;;;;;5058521;28;20633;-62
2022/02/09 11:45:57;;;;;;;7.88;5.22;;;6.80;99.90;;;;;;5061303;28;20071;-62
2022/02/09 12:00:59;;;;;;;7.78;5.15;;;6.90;99.90;;;;;;5053973;28;20393;-62
2022/02/09 12:10:02;;;;;;;5.35;4.22;;;6.90;99.90;;;;;;5057803;28;20659;-62
2022/02/09 12:12:57;;;;;;;6.47;4.43;;;6.90;99.90;;;;;;5059233;28;20488;-62
2022/02/09 12:16:02;;;;;;;5.53;4.05;;;6.80;99.90;;;;;;5061278;28;20751;-63
2022/02/09 12:19:01;;;;;;;6.13;4.47;;;6.80;99.90;;;;;;5065182;28;20606;-62
2022/02/09 12:24:41;;;;;;;5.22;3.85;;;6.80;99.90;;;;;;5059280;28;20028;-62
2022/02/09 12:27:27;;;;;;;8.93;4.45;;;6.80;99.90;;;;;;5063405;28;20062;-60
2022/02/09 12:30:13;;;;;;;7.32;4.30;;;6.80;99.90;;;;;;5067661;28;20227;-61
2022/02/09 12:32:59;;;;;;;6.95;4.45;;;6.80;99.90;;;;;;5065268;28;20020;-63
2022/02/09 12:35:45;;;;;;;4.93;3.23;;;6.80;99.90;;;;;;5064931;28;20028;-62
2022/02/09 12:38:31;;;;;;;10.43;5.30;;;6.80;99.90;;;;;;5060335;28;20488;-62
2022/02/09 12:41:20;;;;;;;7.50;4.72;;;6.80;99.90;;;;;;5069316;28;20058;-62
2022/02/09 12:44:09;;;;;;;6.70;5.22;;;6.80;99.90;;;;;;5067357;28;20528;-62
2022/02/09 12:46:55;;;;;;;10.52;5.43;;;6.80;99.90;;;;;;5065240;28;20033;-62
2022/02/09 12:49:41;;;;;;;9.35;4.82;;;6.80;99.90;;;;;;5064542;28;20035;-62
2022/02/09 12:52:30;;;;;;;8.48;5.60;;;6.80;99.90;;;;;;5066565;28;20029;-61
2022/02/09 12:55:20;;;;;;;11.15;5.03;;;6.90;99.90;;;;;;5062767;28;20032;-62
2022/02/09 12:58:12;;;;;;;6.00;4.75;;;6.80;99.90;;;;;;5064491;28;20021;-62
2022/02/09 13:01:03;;;;;;;8.30;5.22;;;6.70;99.90;;;;;;5056247;28;20550;-61
2022/02/09 13:03:49;;;;;;;8.95;5.90;;;6.70;99.90;;;;;;5048351;28;20083;-61
2022/02/09 13:06:35;;;;;;;7.78;5.38;;;6.70;99.90;;;;;;5065172;28;20032;-62
2022/02/09 13:09:20;;;;;;;7.45;5.50;;;6.70;99.90;;;;;;5073423;28;20078;-61
2022/02/09 13:12:07;;;;;;;9.65;5.15;;;6.70;99.90;;;;;;5072927;28;20032;-62
2022/02/09 13:14:59;;;;;;;8.27;5.82;;;6.80;99.90;;;;;;5078910;28;20040;-62
2022/02/09 13:21:10;;;;;;;8.70;5.85;;;6.70;99.90;;;;;;5066781;28;20032;-62
2022/02/09 13:24:33;;;;;;;8.77;5.43;;;6.70;99.90;;;;;;5059977;28;20783;-62
2022/02/09 13:53:14;;;;;;;8.43;5.78;;;6.80;99.90;;;;;;5067080;28;20041;-62
2022/02/09 14:13:57;;;;;;;10.88;6.82;;;6.70;99.90;;;;;;5065472;28;20048;-62
2022/02/09 14:17:02;;;;;;;11.68;6.43;;;6.70;99.90;;;;;;5064398;28;20109;-62
2022/02/09 14:53:42;;;;;;;12.88;5.82;;;;;;;;;;5063566;28;21003;-63
2022/02/09 14:57:14;;;;;;;15.30;5.63;;;;;;;;;;5065049;28;20046;-62
2022/02/09 15:11:31;;;;;;;10.40;5.75;;;;;;;;;;5072214;28;20036;-62
2022/02/09 15:14:48;;;;;;;9.85;5.30;;;;;;;;;;5080453;28;20723;-63
2022/02/09 15:18:15;;;;;;;11.15;5.50;;;;;;;;;;5069967;28;20074;-62
2022/02/09 15:23:57;;;;;;;10.27;4.75;;;;;;;;;;5060611;28;19912;-62
2022/02/09 15:26:46;;;;;;;8.95;4.80;;;;;;;;;;5053697;28;20028;-62
2022/02/09 15:29:37;;;;;;;8.88;3.97;;;;;;;;;;5069095;28;20054;-62
2022/02/09 15:32:32;;;;;;;7.57;4.22;;;;;;;;;;5070364;28;20071;-62
2022/02/09 15:35:40;;;;;;;8.75;3.95;;;;;;;;;;5077126;28;20040;-62
2022/02/09 15:38:37;;;;;;;;;;;;;;;;;;5071180;28;20040;-62
2022/02/09 15:41:35;;;;;;;7.15;2.70;;;;;;;;;;5058651;28;19969;-62
2022/02/09 15:56:58;;;;;;;4.03;1.80;;;;;;;;;;5074018;28;20486;-63
2022/02/09 16:05:35;;;;;;;5.10;1.98;;;;;;;;;;5067073;28;20043;-63
2022/02/09 16:06:07;;;;;;;4.18;2.38;;;;;;;;;;5072575;28;20043;-63
2022/02/09 16:18:45;;;;;;;9.38;3.03;;;;;;;;;;5086256;28;20097;-63
2022/02/09 16:24:05;;;;;;;3.67;2.00;;;;;;;;;;5086178;28;20070;-64
2022/02/09 16:33:13;;;;;;;7.45;3.15;;;;;;;;;;5084596;28;20689;-63
2022/02/09 16:33:28;;;;;;;4.88;2.08;;;;;;;;;;5088307;28;20047;-62
2022/02/09 16:37:17;;;;;;;6.53;2.20;;;;;;;;;;5086280;28;20047;-63
2022/02/09 16:45:27;;;;;;;5.47;1.90;;;;;;;;;;5082764;28;20113;-66
2022/02/09 16:48:15;;;;;;;7.10;1.90;;;;;;;;;;5081473;28;20085;-63
2022/02/09 16:51:02;;;;;;;5.28;2.65;;;;;;;;;;5073018;28;20133;-64
2022/02/09 17:20:39;;;;;;;5.72;2.53;;;;;;;;;;5079771;28;20047;-62
2022/02/09 17:23:23;;;;;;;10.45;2.17;;;;;;;;;;5088090;28;20085;-63
2022/02/09 17:26:08;;;;;;;4.40;2.65;;;;;;;;;;5084466;28;20539;-63
2022/02/09 17:28:59;;;;;;;7.32;2.67;;;;;;;;;;5082729;28;20506;-63
2022/02/09 17:34:56;;;;;;;5.50;2.55;;;;;;;;;;5088094;28;20081;-63
2022/02/09 17:38:01;;;;;;;6.25;2.67;;;;;;;;;;5081596;28;20112;-63
2022/02/09 17:56:20;;;;;;;5.75;2.67;;;;;;;;;;5076675;28;20036;-64
2022/02/09 17:59:05;;;;;;;6.20;2.50;;;;;;;;;;5082090;28;20027;-64
2022/02/09 18:01:50;;;;;;;5.80;2.53;;;;;;;;;;5065035;28;20533;-63
2022/02/09 18:04:36;;;;;;;7.03;2.80;;;;;;;;;;5078900;28;20089;-63
2022/02/09 18:07:21;;;;;;;8.10;2.72;;;;;;;;;;5085508;28;20519;-62
2022/02/09 18:10:23;;;;;;;7.97;2.83;;;;;;;;;;5080744;28;20038;-63
2022/02/09 18:16:09;;;;;;;4.72;2.40;;;;;;;;;;5081553;28;20543;-64
2022/02/09 18:31:08;;;;;;;7.30;2.80;;;;;;;;;;5078817;28;20089;-63
2022/02/09 18:34:19;;;;;;;6.80;3.05;;;;;;;;;;5084043;28;20034;-64
2022/02/09 18:43:28;;;;;;;;;;;;;;;;;;5088172;28;20042;-62
2022/02/09 19:04:42;;;;;;;11.40;3.25;;;;;;;;;;5083713;28;20047;-63
2022/02/09 19:07:50;;;;;;;11.70;4.03;;;;;;;;;;5078463;28;20116;-63
2022/02/09 19:47:06;;;;;;;15.35;4.88;;;;;;;;;;5076588;28;20039;-63
2022/02/09 19:52:58;;;;;;;10.02;4.80;;;;;;;;;;5084279;28;20047;-62
2022/02/09 19:55:51;;;;;;;15.48;5.88;;;;;;;;;;5087708;28;20709;-61
2022/02/09 20:01:47;;;;;;;10.65;5.10;;;;;;;;;;5082499;28;20079;-62
2022/02/09 20:04:32;;;;;;;11.70;5.57;;;;;;;;;;5081045;28;20085;-62
2022/02/09 20:07:17;;;;;;;16.42;6.30;;;;;;;;;;5086205;28;20507;-61
2022/02/09 20:10:02;;;;;;;13.95;5.97;;;;;;;;;;5078276;28;20055;-62
2022/02/09 20:12:46;;;;;;;11.63;6.03;;;;;;;;;;5085289;28;20055;-62
2022/02/09 20:15:34;;;;;;;12.55;5.93;;;;;;;;;;5080316;28;20039;-62
2022/02/09 20:18:19;;;;;;;12.75;6.60;;;;;;;;;;5087322;28;20089;-61
2022/02/09 20:21:04;;;;;;;11.45;5.30;;;;;;;;;;5084639;28;20052;-62
2022/02/09 20:23:50;;;;;;;11.10;5.00;;;;;;;;;;5085898;28;20066;-61
2022/02/09 20:26:35;;;;;;;10.40;5.15;;;;;;;;;;5089172;28;20466;-62
2022/02/09 20:29:25;;;;;;;16.10;5.97;;;;;;;;;;5088726;28;20094;-61
2022/02/09 20:32:21;;;;;;;12.48;5.25;;;;;;;;;;5081455;28;20051;-62
2022/02/09 20:35:09;;;;;;;10.77;5.93;;;;;;;;;;5081353;28;20164;-62
2022/02/09 20:37:55;;;;;;;13.13;5.43;;;;;;;;;;5086202;28;20529;-62
2022/02/09 20:40:50;;;;;;;15.75;5.93;;;;;;;;;;5079652;28;20093;-61
2022/02/09 20:43:44;;;;;;;15.90;6.28;;;;;;;;;;5084160;28;20089;-61
2022/02/09 20:46:30;;;;;;;9.65;5.15;;;;;;;;;;5079623;28;20140;-62
2022/02/09 20:49:15;;;;;;;12.73;4.50;;;;;;;;;;5086761;28;20169;-62
2022/02/09 20:52:00;;;;;;;11.73;4.95;;;;;;;;;;5080518;28;20031;-62
2022/02/09 20:54:44;;;;;;;8.38;5.07;;;;;;;;;;5086568;28;20062;-61
2022/02/09 20:57:30;;;;;;;8.15;4.35;;;;;;;;;;5082776;28;20740;-62
2022/02/09 21:00:23;;;;;;;12.77;4.50;;;;;;;;;;5083887;28;20060;-62
2022/02/09 21:06:19;;;;;;;11.30;4.75;;;;;;;;;;5083251;28;20043;-62
2022/02/09 21:09:21;;;;;;;11.00;5.57;;;;;;;;;;5086303;28;20039;-62
2022/02/09 21:20:58;;;;;;;11.00;5.57;;;;;;;;;;5079413;28;20043;-63
2022/02/09 21:24:04;;;;;;;13.38;5.50;;;;;;;;;;5069912;28;20422;-61
2022/02/09 21:27:31;;;;;;;11.50;5.38;;;;;;;;;;5085067;28;20051;-62
2022/02/09 21:56:48;;;;;;;11.40;5.30;;;;;;;;;;5084850;28;20105;-62
2022/02/09 22:27:19;;;;;;;11.45;5.22;;;;;;;;;;5071291;28;20055;-62
2022/02/09 22:48:59;;;;;;;9.53;4.40;;;;;;;;;;5067808;28;20919;-62
2022/02/09 22:54:41;;;;;;;10.52;3.63;;;;;;;;;;5077063;28;20563;-62
2022/02/09 22:57:41;;;;;;;12.52;4.75;;;;;;;;;;5089790;28;20085;-62
2022/02/09 23:11:06;;;;;;;9.27;3.75;;;4.80;99.90;;;;;;5056722;28;20102;-62
2022/02/09 23:17:21;;;;;;;7.90;3.58;;;4.80;99.90;;;;;;5018441;28;20048;-63
2022/02/09 23:53:27;;;;;;;13.77;4.00;;;4.80;99.90;;;;;;5044981;28;20553;-63
